Strona główna
METAR-TAF:

METAR-TAF

Lotnisko :

Community_Airport

Owosso, Michigan, Stany Zjednoczone

Szerokość geograficzna: 42-59-34N, Długość geograficzna: 084-08-20W, wysokość: 224 m

Aktualna obserwacja pogody

Raport powstał 6 minut temu, godzina 19:15 UTC
Wiatr 11 kt od południowo-południowy wschód w porywach dochodzący do 15 kt, zmienny między południowy wschód i południe
Temperatura 27°C
Wilgotność 70%
Ciśnienie 1009 hPa
Widzialność: 16.1 km
bezchmurnie

METAR: KRNP 181915Z AUTO 16011G15KT 130V190 10SM CLR 27/21 A2979 RMK AO2 T02730206

czas: 15:21 (19:21 UTC)


TAF: brakujący

Obserwacja i prognoza pogody dla ponad 4000 lotnisk (raport METAR i TAF).

Dostępne stacje oznaczono żółtymi i czerwonymi punktami na mapie.

Najedź kursorem aby zobaczyć nazwę stacji.

Kliknij aby zobaczyć obserwacje i prognozy pogody.

Aby zmienić mapę: kliknij na zielony przycisk z czarnym krzyżykiem, aby powiększyć; na zielony przycisk z myślnikiem, aby pomniejszyć; na zielone strzałki, aby przejść do map sąsiednich.


METAR-TAF: